Time;durP1;ratioP1;P1;durP2;ratioP2;P2;SDS_P1;SDS_P2;PMS_P1;PMS_P2;Temp;Humidity;BMP_temperature;BMP_pressure;BME280_temperature;BME280_humidity;BME280_pressure;Samples;Min_cycle;Max_cycle;Signal;HPM_P1;HPM_P2
2022/06/24 00:00:21;;;;;;;8.68;4.95;;;;;;;19.45;100.00;94615.38;4994474;28;20211;-79
2022/06/24 00:02:57;;;;;;;9.55;4.72;;;;;;;19.48;100.00;94611.44;4999735;28;20199;-80
2022/06/24 00:05:38;;;;;;;9.20;4.97;;;;;;;19.45;100.00;94609.34;4990680;28;20326;-80
2022/06/24 00:08:20;;;;;;;7.55;4.63;;;;;;;19.37;100.00;94608.03;4994556;28;20199;-80
2022/06/24 00:10:57;;;;;;;7.13;5.28;;;;;;;19.37;100.00;94613.28;4999715;28;20246;-79
2022/06/24 00:13:45;;;;;;;13.13;5.40;;;;;;;19.36;100.00;94624.91;4997596;28;20330;-81
2022/06/24 00:16:17;;;;;;;10.25;5.45;;;;;;;19.38;100.00;94622.00;5003152;28;20281;-79
2022/06/24 00:19:06;;;;;;;14.10;5.40;;;;;;;19.32;100.00;94623.06;4990690;28;20211;-79
2022/06/24 00:21:46;;;;;;;9.57;4.95;;;;;;;19.32;100.00;94633.63;4991320;28;20212;-79
2022/06/24 00:24:33;;;;;;;10.57;5.25;;;;;;;19.28;100.00;94621.00;4994190;28;20212;-78
2022/06/24 00:27:29;;;;;;;11.60;5.50;;;;;;;19.34;100.00;94634.91;5000206;28;20709;-78
2022/06/24 00:30:13;;;;;;;11.70;5.57;;;;;;;19.34;100.00;94645.47;4999027;28;20206;-78
2022/06/24 00:32:52;;;;;;;12.52;6.10;;;;;;;19.29;100.00;94642.88;4995651;28;20211;-78
2022/06/24 00:35:27;;;;;;;9.32;5.88;;;;;;;19.28;100.00;94654.47;4998286;28;20200;-78
2022/06/24 00:38:05;;;;;;;10.05;6.13;;;;;;;19.18;100.00;94641.34;4997904;28;20213;-78
2022/06/24 00:40:41;;;;;;;12.65;6.68;;;;;;;19.13;100.00;94650.03;4996810;28;20222;-79
2022/06/24 00:43:29;;;;;;;15.25;5.72;;;;;;;19.07;100.00;94651.16;4988613;28;20238;-78
2022/06/24 00:46:14;;;;;;;10.00;5.45;;;;;;;19.01;100.00;94643.53;4997589;28;20204;-80
2022/06/24 00:48:52;;;;;;;14.27;5.45;;;;;;;18.98;100.00;94644.06;4996529;28;20591;-78
2022/06/24 00:51:35;;;;;;;6.63;4.65;;;;;;;18.97;100.00;94645.91;4990620;28;20282;-78
2022/06/24 00:54:15;;;;;;;7.72;5.00;;;;;;;18.94;100.00;94648.28;5000043;28;20216;-79
2022/06/24 00:57:00;;;;;;;10.13;5.60;;;;;;;18.94;100.00;94648.28;4996638;28;20199;-80
2022/06/24 00:59:49;;;;;;;7.78;5.38;;;;;;;18.89;100.00;94657.00;4988714;28;20207;-78
2022/06/24 01:02:31;;;;;;;11.63;5.30;;;;;;;18.95;100.00;94650.66;4995037;28;20266;-79
2022/06/24 01:05:10;;;;;;;9.65;5.55;;;;;;;19.01;100.00;94646.16;4992655;28;20231;-79
2022/06/24 01:07:51;;;;;;;10.25;5.38;;;;;;;18.98;100.00;94644.06;4996214;28;20239;-79
2022/06/24 01:10:29;;;;;;;7.38;5.03;;;;;;;19.00;100.00;94652.50;4990758;28;20199;-78
2022/06/24 01:13:03;;;;;;;11.50;5.63;;;;;;;19.00;100.00;94655.91;5000089;28;20237;-79
2022/06/24 01:15:52;;;;;;;13.13;5.32;;;;;;;19.00;100.00;94655.91;4991795;28;20590;-79
2022/06/24 01:18:27;;;;;;;7.32;5.07;;;;;;;18.98;100.00;94654.63;4992635;28;20231;-79
2022/06/24 01:21:08;;;;;;;12.57;5.70;;;;;;;18.98;100.00;94655.41;4992253;28;20264;-79
2022/06/24 01:23:52;;;;;;;8.82;5.47;;;;;;;18.89;100.00;94643.06;4992139;28;20270;-80
2022/06/24 01:26:27;;;;;;;10.55;5.45;;;;;;;18.91;100.00;94651.47;4990690;28;20309;-78
2022/06/24 01:29:06;;;;;;;10.18;5.45;;;;;;;18.91;100.00;94657.53;5000458;28;20727;-78
2022/06/24 01:31:48;;;;;;;9.52;6.00;;;;;;;18.83;100.00;94652.03;4996896;28;20243;-80
2022/06/24 01:34:32;;;;;;;11.77;6.38;;;;;;;18.73;100.00;94655.47;4989517;28;20204;-79
2022/06/24 01:37:10;;;;;;;12.27;6.50;;;;;;;18.61;100.00;94639.22;4991416;28;20211;-80
2022/06/24 01:39:53;;;;;;;15.30;6.85;;;;;;;18.67;100.00;94648.66;4995339;28;20206;-80
2022/06/24 01:42:32;;;;;;;17.75;6.80;;;;;;;18.63;100.00;94644.97;4990233;28;20505;-79
2022/06/24 01:45:11;;;;;;;10.25;6.60;;;;;;;18.47;100.00;94635.53;4998242;28;20649;-79
2022/06/24 01:47:44;;;;;;;13.32;6.60;;;;;;;18.45;100.00;94645.50;4992686;28;20204;-80
2022/06/24 01:50:17;;;;;;;9.40;6.28;;;;;;;18.39;100.00;94644.75;4986716;28;20219;-80
2022/06/24 01:52:58;;;;;;;8.10;6.10;;;;;;;18.39;100.00;94636.06;4988938;28;20223;-79
2022/06/24 01:55:32;;;;;;;13.52;7.05;;;;;;;18.46;100.00;94633.94;4991892;28;20221;-80
2022/06/24 01:58:12;;;;;;;12.95;6.72;;;;;;;18.48;100.00;94627.38;4989052;28;20261;-79
2022/06/24 02:00:52;;;;;;;11.35;6.88;;;;;;;18.49;100.00;94601.84;4994753;28;20207;-80
2022/06/24 02:03:33;;;;;;;9.70;6.13;;;;;;;18.52;100.00;94603.94;4996978;28;20561;-79
2022/06/24 02:06:12;;;;;;;10.38;6.03;;;;;;;18.54;100.00;94604.47;4991177;28;21203;-79
2022/06/24 02:08:56;;;;;;;9.05;6.32;;;;;;;18.51;100.00;94605.78;4990084;28;20215;-78
2022/06/24 02:14:44;;;;;;;17.75;6.97;;;;;;;18.46;100.00;94607.63;4958094;28;20234;-80
2022/06/24 02:17:24;;;;;;;12.70;6.43;;;;;;;18.45;100.00;94614.72;4988783;28;20666;-80
2022/06/24 02:20:04;;;;;;;15.10;6.95;;;;;;;18.40;100.00;94604.22;4993165;28;20207;-79
2022/06/24 02:22:37;;;;;;;16.75;7.00;;;;;;;18.40;100.00;94608.69;4991142;28;20231;-80
2022/06/24 02:25:16;;;;;;;13.77;6.72;;;;;;;18.33;100.00;94610.78;4993369;28;20766;-78
2022/06/24 02:27:54;;;;;;;15.13;7.07;;;;;;;18.29;100.00;94607.13;4985304;28;20200;-79
2022/06/24 02:30:35;;;;;;;10.82;6.55;;;;;;;18.29;100.00;94620.28;4996031;28;20290;-78
2022/06/24 02:33:12;;;;;;;18.30;6.55;;;;;;;18.27;100.00;94623.19;4987786;28;20290;-79
2022/06/24 02:35:52;;;;;;;11.67;6.37;;;;;;;18.25;100.00;94630.56;5001553;28;20661;-78
2022/06/24 02:38:30;;;;;;;9.48;6.35;;;;;;;18.25;100.00;94632.41;4994313;28;20211;-79
2022/06/24 02:41:07;;;;;;;9.57;5.93;;;;;;;18.19;100.00;94636.09;4992553;28;20211;-79
2022/06/24 02:43:52;;;;;;;7.87;5.33;;;;;;;17.74;100.00;94621.91;4994997;28;20242;-79
2022/06/24 02:46:28;;;;;;;12.43;5.73;;;;;;;17.78;100.00;94622.16;4992345;28;20203;-79
2022/06/24 02:49:04;;;;;;;11.57;5.27;;;;;;;17.78;100.00;94620.31;4999419;28;20243;-78
2022/06/24 02:51:42;;;;;;;12.77;5.50;;;;;;;17.78;100.00;94614.28;5000732;28;20223;-78
2022/06/24 02:54:30;;;;;;;8.33;5.03;;;;;;;17.80;100.00;94610.34;4998915;28;20673;-78
2022/06/24 02:57:09;;;;;;;9.55;4.78;;;;;;;17.84;100.00;94611.38;4996184;28;20208;-80
2022/06/24 02:59:52;;;;;;;9.10;5.10;;;;;;;17.83;100.00;94615.09;5001802;28;20680;-79
2022/06/24 03:02:30;;;;;;;13.33;5.00;;;;;;;17.84;100.00;94621.91;4997698;28;20254;-79
2022/06/24 03:05:07;;;;;;;9.47;5.13;;;;;;;17.88;100.00;94625.59;4996070;28;20238;-79
2022/06/24 03:07:46;;;;;;;8.90;4.73;;;;;;;17.83;100.00;94632.69;4991867;28;20610;-79
2022/06/24 03:10:24;;;;;;;9.90;4.63;;;;;;;17.72;100.00;94624.00;4996699;28;20215;-79
2022/06/24 03:12:59;;;;;;;11.23;5.00;;;;;;;17.65;100.00;94630.59;4999271;28;20313;-79
2022/06/24 03:15:45;;;;;;;7.53;4.93;;;;;;;17.54;100.00;94627.97;4997296;28;20210;-79
2022/06/24 03:18:24;;;;;;;9.20;4.70;;;;;;;17.52;100.00;94629.22;4988298;28;20208;-79
2022/06/24 03:21:06;;;;;;;16.60;4.67;;;;;;;17.45;100.00;94631.31;4998055;28;20211;-79
2022/06/24 03:23:51;;;;;;;12.47;5.30;;;;;;;17.45;100.00;94626.06;4994977;28;20207;-79
2022/06/24 03:26:26;;;;;;;8.77;4.60;;;;;;;17.60;100.00;94630.59;4997939;28;20210;-79
2022/06/24 03:28:58;;;;;;;9.97;4.83;;;;;;;17.69;100.00;94626.41;4994796;28;20270;-78
2022/06/24 03:31:38;;;;;;;10.03;5.20;;;;;;;17.78;100.00;94632.69;4995259;28;20214;-79
2022/06/24 03:34:11;;;;;;;9.03;5.43;;;;;;;17.84;100.00;94644.78;4998032;28;20199;-79
2022/06/24 03:36:49;;;;;;;7.83;4.87;;;;;;;17.84;100.00;94647.41;5001200;28;20609;-79
2022/06/24 03:39:30;;;;;;;10.40;4.90;;;;;;;17.63;100.00;94643.22;4996901;28;20319;-79
2022/06/24 03:42:11;;;;;;;9.00;4.83;;;;;;;17.36;100.00;94633.69;5007106;28;20206;-79
2022/06/24 03:44:43;;;;;;;8.30;4.73;;;;;;;17.36;100.00;94627.63;4996170;28;20206;-79
2022/06/24 03:47:25;;;;;;;9.50;4.83;;;;;;;17.45;100.00;94629.50;4990485;28;20211;-80
2022/06/24 03:49:59;;;;;;;7.50;4.53;;;;;;;17.46;100.00;94635.53;4992477;28;20204;-79
2022/06/24 03:52:36;;;;;;;10.20;4.77;;;;;;;17.58;100.00;94646.59;4994911;28;20230;-78
2022/06/24 03:55:14;;;;;;;9.63;5.10;;;;;;;17.64;100.00;94639.50;4990815;28;20220;-79
2022/06/24 03:57:52;;;;;;;10.90;5.23;;;;;;;17.55;100.00;94639.25;5002051;28;20634;-80
2022/06/24 04:00:29;;;;;;;15.03;5.50;;;;;;;17.55;100.00;94626.88;4995542;28;20206;-79
2022/06/24 04:03:07;;;;;;;7.43;5.10;;;;;;;17.51;100.00;94627.66;4997123;28;20209;-79
2022/06/24 04:05:42;;;;;;;9.47;5.70;;;;;;;17.61;100.00;94635.56;4993172;28;20239;-79
2022/06/24 04:08:20;;;;;;;14.33;6.57;;;;;;;17.62;100.00;94624.00;4990648;28;20239;-80
2022/06/24 04:10:54;;;;;;;14.47;6.00;;;;;;;17.72;100.00;94639.78;4997614;28;20204;-79
2022/06/24 04:13:35;;;;;;;12.60;6.20;;;;;;;17.80;100.00;94641.91;5001278;28;20315;-80
2022/06/24 04:16:10;;;;;;;9.87;5.30;;;;;;;17.87;100.00;94639.00;4993539;28;20301;-79
2022/06/24 04:18:52;;;;;;;12.40;6.03;;;;;;;17.89;100.00;94650.81;4995564;28;20633;-78
2022/06/24 04:21:30;;;;;;;10.57;5.83;;;;;;;17.88;100.00;94641.38;4997073;28;20211;-80
2022/06/24 04:24:13;;;;;;;11.53;6.00;;;;;;;17.85;100.00;94647.16;4992919;28;20215;-80
2022/06/24 04:26:52;;;;;;;13.17;6.20;;;;;;;17.75;100.00;94654.25;4998001;28;20211;-79
2022/06/24 04:29:21;;;;;;;15.90;5.90;;;;;;;17.67;100.00;94658.19;4983250;28;20222;-79
2022/06/24 04:31:50;;;;;;;14.60;6.30;;;;;;;17.61;100.00;94655.81;4988445;28;20314;-80
2022/06/24 04:34:29;;;;;;;14.37;6.10;;;;;;;17.55;100.00;94662.91;4993570;28;20839;-80
2022/06/24 04:37:06;;;;;;;12.33;6.33;;;;;;;17.53;100.00;94667.59;4989296;28;20203;-80
2022/06/24 04:39:43;;;;;;;11.67;6.30;;;;;;;17.58;100.00;94671.06;4991487;28;20980;-79
2022/06/24 04:42:17;;;;;;;9.80;6.20;;;;;;;17.73;100.00;94664.22;4984538;28;20204;-80
2022/06/24 04:44:52;;;;;;;16.00;6.50;;;;;;;17.88;100.00;94672.13;4994809;28;20657;-80
2022/06/24 04:47:29;;;;;;;13.47;7.03;;;;;;;18.01;100.00;94664.50;4999335;28;20235;-80
2022/06/24 04:50:08;;;;;;;8.53;5.70;;;;;;;18.10;100.00;94662.94;4993949;28;20199;-80
2022/06/24 04:52:40;;;;;;;15.77;6.63;;;;;;;18.15;100.00;94664.78;4991572;28;20251;-81
2022/06/24 04:55:10;;;;;;;11.20;6.33;;;;;;;18.29;100.00;94665.03;4995326;28;20215;-80
2022/06/24 04:57:42;;;;;;;13.40;6.50;;;;;;;18.39;100.00;94678.94;4999794;28;20208;-81
2022/06/24 05:00:15;;;;;;;9.03;6.17;;;;;;;18.39;100.00;94673.69;4995853;28;20235;-80
2022/06/24 05:02:51;;;;;;;25.23;6.83;;;;;;;18.51;100.00;94670.81;4995588;28;20299;-81
2022/06/24 05:05:23;;;;;;;14.20;7.17;;;;;;;18.58;100.00;94668.69;4994271;28;20239;-81
2022/06/24 05:07:59;;;;;;;17.48;7.88;;;;;;;18.69;100.00;94671.03;4995035;28;20290;-82
2022/06/24 05:10:30;;;;;;;13.43;8.17;;;;;;;18.47;100.00;94678.41;4995462;28;20207;-81
2022/06/24 05:13:03;;;;;;;17.67;8.57;;;;;;;18.49;100.00;94678.97;4989845;28;20227;-81
2022/06/24 05:15:36;;;;;;;15.02;9.45;;;;;;;18.54;100.00;94678.97;4995131;28;20278;-81
2022/06/24 05:18:08;;;;;;;18.65;9.57;;;;;;;18.55;100.00;94675.28;4988567;28;20208;-80
2022/06/24 05:20:41;;;;;;;18.30;9.88;;;;;;;18.57;100.00;94685.53;4999921;28;20235;-80
2022/06/24 05:23:12;;;;;;;18.08;10.70;;;;;;;18.51;100.00;94686.59;4993439;28;20204;-80
2022/06/24 05:25:42;;;;;;;17.13;9.88;;;;;;;18.53;100.00;94689.75;4998497;28;20608;-82
2022/06/24 05:28:14;;;;;;;25.65;10.30;;;;;;;18.54;100.00;94688.69;4999658;28;20218;-80
2022/06/24 05:30:47;;;;;;;18.05;11.77;;;;;;;18.53;100.00;94695.81;4996063;28;20589;-81
2022/06/24 05:33:15;;;;;;;14.10;10.65;;;;;;;18.67;100.00;94704.72;4988524;28;20246;-78
2022/06/24 05:35:58;;;;;;;19.85;11.23;;;;;;;18.67;100.00;94709.22;4992450;28;20224;-80
2022/06/24 05:38:32;;;;;;;13.45;11.07;;;;;;;18.57;100.00;94709.22;4996128;28;20222;-79
2022/06/24 05:41:03;;;;;;;17.90;12.05;;;;;;;18.52;100.00;94701.34;4994838;28;20235;-79
2022/06/24 05:43:38;;;;;;;17.77;11.70;;;;;;;18.44;100.00;94692.09;4993629;28;21066;-79
2022/06/24 05:46:09;;;;;;;19.30;11.90;;;;;;;18.47;100.00;94691.56;4996146;28;20253;-80
2022/06/24 05:48:43;;;;;;;13.50;11.20;;;;;;;18.48;100.00;94682.66;4992187;28;20278;-80
2022/06/24 05:51:18;;;;;;;15.27;10.50;;;;;;;18.76;100.00;94704.97;4995584;28;20219;-79
2022/06/24 05:56:35;;;;;;;11.10;8.80;;;;;;;18.94;100.00;94709.66;4992182;28;20257;-80
2022/06/24 05:59:09;;;;;;;13.55;9.95;;;;;;;19.13;100.00;94723.06;4988037;28;20253;-81
2022/06/24 06:01:40;;;;;;;15.85;9.10;;;;;;;19.21;100.00;94722.50;4992586;28;20332;-78
2022/06/24 06:04:15;;;;;;;16.70;9.20;;;;;;;19.23;100.00;94718.53;5001362;28;20238;-81
2022/06/24 06:06:49;;;;;;;14.95;8.85;;;;;;;19.42;100.00;94725.88;4997283;28;20566;-80
2022/06/24 06:09:18;;;;;;;10.80;7.93;;;;;;;19.45;100.00;94715.56;4988570;28;20199;-78
2022/06/24 06:11:52;;;;;;;12.73;8.68;;;;;;;19.55;100.00;94712.09;4997275;28;20214;-80
2022/06/24 06:14:24;;;;;;;11.77;7.93;;;;;;;19.61;100.00;94711.00;4994030;28;20199;-80
2022/06/24 06:16:56;;;;;;;14.23;8.52;;;;;;;19.65;100.00;94712.03;5003098;28;20235;-80
2022/06/24 06:19:29;;;;;;;13.02;8.48;;;;;;;19.78;100.00;94708.78;4997834;28;20203;-79
2022/06/24 06:22:07;;;;;;;13.02;7.95;;;;;;;19.92;100.00;94701.84;4993895;28;20219;-80
2022/06/24 06:24:39;;;;;;;13.48;8.40;;;;;;;19.97;100.00;94693.13;4993608;28;21042;-80
2022/06/24 06:27:17;;;;;;;13.50;7.68;;;;;;;20.05;100.00;94693.31;4999330;28;20215;-79
2022/06/24 06:29:49;;;;;;;9.60;7.35;;;;;;;20.07;100.00;94711.50;4993559;28;20212;-80
2022/06/24 06:32:23;;;;;;;9.77;6.70;;;;;;;20.04;100.00;94710.19;4990568;28;20232;-74
2022/06/24 06:34:58;;;;;;;9.05;7.40;;;;;;;20.03;100.00;94715.78;4996565;28;20204;-81
2022/06/24 06:37:37;;;;;;;11.23;7.00;;;;;;;19.92;100.00;94695.75;4992513;28;20290;-80
2022/06/24 06:40:11;;;;;;;9.50;6.70;;;;;;;19.87;100.00;94699.25;4998873;28;20235;-80
2022/06/24 06:42:39;;;;;;;9.43;6.68;;;;;;;19.89;100.00;94689.19;4998733;28;20194;-80
2022/06/24 06:45:10;;;;;;;7.40;5.72;;;;;;;19.87;100.00;94695.81;4995830;28;20208;-81
2022/06/24 06:47:41;;;;;;;9.63;7.00;;;;;;;19.85;100.00;94682.91;4995478;28;20259;-80
2022/06/24 06:50:11;;;;;;;9.52;6.28;;;;;;;19.99;100.00;94683.06;5003310;28;20207;-80
2022/06/24 06:52:44;;;;;;;7.00;6.20;;;;;;;19.98;100.00;94676.19;5001589;28;20227;-80
2022/06/24 06:55:15;;;;;;;9.75;5.90;;;;;;;19.87;100.00;94674.69;5008027;28;20221;-81
2022/06/24 06:57:46;;;;;;;7.70;5.47;;;;;;;19.90;100.00;94679.44;4992118;28;20280;-80
2022/06/24 07:00:19;;;;;;;9.20;6.18;;;;;;;20.02;100.00;94679.88;4999887;28;20305;-80
2022/06/24 07:02:49;;;;;;;11.00;6.55;;;;;;;20.10;100.00;94682.72;5000499;28;20207;-79
2022/06/24 07:05:20;;;;;;;9.15;6.07;;;;;;;19.97;100.00;94656.19;4996868;28;20231;-81
2022/06/24 07:07:58;;;;;;;12.18;6.10;;;;;;;20.08;100.00;94673.50;4999220;28;20718;-81
2022/06/24 07:10:31;;;;;;;11.68;6.78;;;;;;;20.15;100.00;94668.69;5002345;28;20200;-80
2022/06/24 07:13:07;;;;;;;9.60;6.50;;;;;;;20.21;100.00;94671.00;4999654;28;20227;-80
2022/06/24 07:15:37;;;;;;;9.85;6.75;;;;;;;20.29;100.00;94667.00;4997144;28;20239;-83
2022/06/24 07:18:10;;;;;;;7.72;6.25;;;;;;;20.39;100.00;94672.19;4991738;28;21030;-80
2022/06/24 07:20:43;;;;;;;12.15;6.03;;;;;;;20.51;100.00;94664.69;4993825;28;20200;-81
2022/06/24 07:23:21;;;;;;;15.10;6.78;;;;;;;20.61;100.00;94656.66;4995312;28;20199;-86
2022/06/24 07:25:59;;;;;;;9.88;6.50;;;;;;;20.93;100.00;94669.25;4988461;28;20223;-74
2022/06/24 07:28:30;;;;;;;7.53;6.22;;;;;;;21.08;99.74;94658.53;4995132;28;20226;-76
2022/06/24 07:31:00;;;;;;;9.05;6.13;;;;;;;21.17;99.77;94672.72;4990256;28;20200;-80
2022/06/24 07:33:33;;;;;;;10.55;6.20;;;;;;;21.21;100.00;94662.38;4995770;28;20702;-82
2022/06/24 07:36:06;;;;;;;12.80;6.85;;;;;;;21.36;100.00;94664.78;4993641;28;20675;-79
2022/06/24 07:38:39;;;;;;;11.55;6.97;;;;;;;21.65;100.00;94668.09;4990944;28;20211;-80
2022/06/24 07:41:13;;;;;;;6.68;5.63;;;;;;;21.68;99.58;94672.03;4989650;28;20286;-80
2022/06/24 07:43:46;;;;;;;8.13;5.53;;;;;;;21.66;96.97;94666.25;4992735;28;20287;-80
2022/06/24 07:46:17;;;;;;;6.82;5.05;;;;;;;21.58;95.45;94666.91;4987848;28;20203;-79
2022/06/24 07:48:47;;;;;;;8.25;4.93;;;;;;;21.67;95.09;94662.53;4989182;28;20247;-79
2022/06/24 07:51:19;;;;;;;5.70;4.00;;;;;;;21.82;92.54;94662.28;4987944;28;20200;-81
2022/06/24 07:53:52;;;;;;;6.25;4.13;;;;;;;22.01;92.35;94661.25;4991081;28;20211;-78
2022/06/24 07:59:08;;;;;;;9.02;5.03;;;;;;;22.32;94.54;94653.59;4990050;28;20203;-82
2022/06/24 08:01:37;;;;;;;6.55;4.93;;;;;;;22.24;93.81;94661.41;4993070;28;20208;-85
2022/06/24 08:04:09;;;;;;;6.50;5.28;;;;;;;22.19;95.45;94653.56;4993925;28;20187;-83
2022/06/24 08:06:43;;;;;;;6.22;5.40;;;;;;;22.40;95.80;94652.13;4986037;28;20208;-80
2022/06/24 08:09:16;;;;;;;7.22;5.22;;;;;;;22.65;95.03;94654.38;4982398;28;20200;-84
2022/06/24 08:11:45;;;;;;;7.22;5.20;;;;;;;22.72;94.17;94657.41;4989163;28;20213;-78
2022/06/24 08:14:15;;;;;;;7.03;4.93;;;;;;;22.77;94.10;94657.31;4987693;28;20314;-79
2022/06/24 08:16:44;;;;;;;6.00;4.93;;;;;;;22.84;93.80;94665.69;4981677;28;20205;-78
2022/06/24 08:19:14;;;;;;;9.95;5.38;;;;;;;22.86;92.96;94655.56;4987511;28;20675;-80
2022/06/24 08:21:45;;;;;;;12.02;4.90;;;;;;;22.98;91.96;94663.03;4987515;28;20205;-79
2022/06/24 08:24:16;;;;;;;5.78;4.47;;;;;;;22.99;88.02;94665.38;4981292;28;20207;-78
2022/06/24 08:26:45;;;;;;;6.15;5.00;;;;;;;22.85;90.88;94653.22;4990805;28;20287;-80
2022/06/24 08:29:16;;;;;;;8.85;4.97;;;;;;;22.64;90.87;94655.44;4989527;28;20196;-80
2022/06/24 08:31:52;;;;;;;7.25;4.85;;;;;;;22.70;93.50;94653.50;4993139;28;20549;-81
2022/06/24 08:34:22;;;;;;;10.68;4.97;;;;;;;22.89;92.97;94654.97;4985527;28;20228;-79
2022/06/24 08:36:52;;;;;;;6.88;4.03;;;;;;;23.07;89.45;94651.44;4986756;28;20646;-80
2022/06/24 08:39:24;;;;;;;9.93;4.63;;;;;;;23.14;90.60;94656.34;4984126;28;20204;-79
2022/06/24 08:42:00;;;;;;;5.35;4.30;;;;;;;23.36;89.09;94661.72;4983943;28;20197;-79
2022/06/24 08:44:30;;;;;;;5.00;4.32;;;;;;;23.60;88.64;94672.13;4989413;28;20210;-79
2022/06/24 08:47:01;;;;;;;7.32;4.28;;;;;;;23.68;86.67;94671.41;4991427;28;20671;-80
2022/06/24 08:49:35;;;;;;;6.40;4.22;;;;;;;23.81;86.11;94664.50;4992068;28;20208;-79
2022/06/24 08:52:12;;;;;;;5.65;4.10;;;;;;;23.89;87.13;94675.19;4996236;28;20226;-79
2022/06/24 08:54:47;;;;;;;7.55;4.15;;;;;;;23.82;85.92;94671.38;4988905;28;20377;-74
2022/06/24 08:57:20;;;;;;;11.38;4.60;;;;;;;23.77;85.43;94674.16;4989448;28;20206;-76
2022/06/24 08:59:54;;;;;;;9.00;4.10;;;;;;;23.75;85.40;94677.13;4993563;28;20208;-83
2022/06/24 09:02:25;;;;;;;8.55;4.38;;;;;;;23.78;83.35;94668.53;4982805;28;20215;-79
2022/06/24 09:05:00;;;;;;;4.40;3.92;;;;;;;23.81;83.84;94661.84;4987798;28;20285;-81
2022/06/24 09:07:32;;;;;;;7.57;4.10;;;;;;;23.79;83.59;94666.66;4992462;28;20298;-82
2022/06/24 09:10:05;;;;;;;7.53;3.90;;;;;;;23.67;86.03;94665.31;4989532;28;20203;-82
2022/06/24 09:12:41;;;;;;;8.50;4.13;;;;;;;23.69;85.95;94652.53;4993222;28;20215;-83
2022/06/24 09:15:19;;;;;;;9.35;3.63;;;;;;;23.74;82.89;94659.59;5000564;28;20714;-85
2022/06/24 09:17:49;;;;;;;7.65;3.92;;;;;;;23.73;82.21;94653.50;4991002;28;20262;-84
2022/06/24 09:20:21;;;;;;;7.60;3.83;;;;;;;23.84;85.41;94648.75;4982246;28;20548;-81
2022/06/24 09:22:52;;;;;;;4.82;3.90;;;;;;;24.05;84.07;94657.81;4990479;28;20196;-81
2022/06/24 09:25:27;;;;;;;4.40;3.72;;;;;;;24.12;83.11;94655.56;4989498;28;20215;-79
2022/06/24 09:28:06;;;;;;;6.25;4.05;;;;;;;24.05;82.82;94649.06;4993861;28;20203;-80
2022/06/24 09:30:40;;;;;;;4.90;3.78;;;;;;;24.19;83.32;94649.81;4992158;28;20215;-80
2022/06/24 09:33:20;;;;;;;9.25;3.70;;;;;;;24.27;82.26;94660.47;4992980;28;20206;-79
2022/06/24 09:36:01;;;;;;;5.97;3.80;;;;;;;24.35;83.08;94658.19;4992261;28;20250;-81
2022/06/24 09:38:35;;;;;;;6.70;3.40;;;;;;;24.39;78.58;94665.25;4990358;28;20651;-80
2022/06/24 09:41:10;;;;;;;9.65;3.58;;;;;;;24.45;78.35;94663.25;4988425;28;20200;-79
2022/06/24 09:43:46;;;;;;;5.53;3.53;;;;;;;24.49;78.92;94672.97;4985885;28;20238;-79
2022/06/24 09:46:23;;;;;;;6.82;3.15;;;;;;;24.57;76.27;94666.91;4992565;28;20343;-79
2022/06/24 09:49:04;;;;;;;5.53;3.42;;;;;;;24.56;80.00;94667.25;4989465;28;20200;-79
2022/06/24 09:51:40;;;;;;;8.10;3.35;;;;;;;24.65;74.69;94666.19;4992624;28;20312;-80
2022/06/24 09:54:14;;;;;;;7.07;4.43;;;;;;;24.83;74.58;94667.06;4989251;28;20714;-79
2022/06/24 09:56:50;;;;;;;3.65;2.70;;;;;;;24.83;68.44;94673.19;4986770;28;20218;-79
2022/06/24 10:02:14;;;;;;;6.07;3.17;;;;;;;24.68;72.22;94676.19;4994207;28;20207;-75
2022/06/24 10:04:49;;;;;;;4.13;2.70;;;;;;;24.88;71.35;94664.28;4993624;28;20617;-79
2022/06/24 10:07:27;;;;;;;5.47;3.30;;;;;;;25.05;73.15;94661.66;4990577;28;20246;-80
2022/06/24 10:10:06;;;;;;;6.07;3.20;;;;;;;25.06;74.85;94667.78;4996206;28;20206;-78
2022/06/24 10:12:44;;;;;;;7.25;3.50;;;;;;;24.99;72.85;94667.47;4995665;28;20295;-78
2022/06/24 10:15:17;;;;;;;5.07;3.30;;;;;;;24.97;70.92;94665.09;4990250;28;20216;-76
2022/06/24 10:17:50;;;;;;;6.82;3.10;;;;;;;24.91;70.52;94676.94;4993524;28;20210;-75
2022/06/24 10:20:22;;;;;;;5.55;2.72;;;;;;;24.99;69.35;94684.22;4987700;28;20200;-75
2022/06/24 10:22:54;;;;;;;4.70;3.15;;;;;;;25.06;68.02;94673.09;4984410;28;20207;-75
2022/06/24 10:25:54;;;;;;;13.95;4.30;;;;;;;25.32;70.98;94671.31;4996853;28;20208;-83
2022/06/24 10:28:29;;;;;;;4.97;3.00;;;;;;;25.61;69.58;94674.22;4989895;28;20215;-71
2022/06/24 10:31:03;;;;;;;6.38;3.08;;;;;;;25.67;69.83;94667.66;4987743;28;20235;-74
2022/06/24 10:33:39;;;;;;;4.68;2.83;;;;;;;25.76;70.44;94663.13;4985084;28;20325;-80
2022/06/24 10:36:12;;;;;;;6.47;3.58;;;;;;;25.85;72.46;94674.56;4994506;28;20200;-79
2022/06/24 10:38:47;;;;;;;3.50;2.83;;;;;;;26.13;68.60;94669.69;4989740;28;20286;-79
2022/06/24 10:41:20;;;;;;;9.13;3.20;;;;;;;26.18;67.13;94663.44;4983984;28;20216;-77
2022/06/24 10:43:55;;;;;;;6.15;2.88;;;;;;;26.41;68.37;94672.81;4987669;28;20341;-80
2022/06/24 10:46:28;;;;;;;4.45;3.20;;;;;;;26.63;65.95;94672.63;4993690;28;20293;-79
2022/06/24 10:49:03;;;;;;;4.63;2.67;;;;;;;26.78;62.71;94666.75;4990658;28;20214;-80
2022/06/24 10:51:34;;;;;;;3.13;2.80;;;;;;;27.04;62.36;94672.03;4992247;28;20692;-79
2022/06/24 10:54:24;;;;;;;4.07;3.08;;;;;;;27.28;61.07;94666.09;4990087;28;20228;-79
2022/06/24 10:56:52;;;;;;;6.18;2.90;;;;;;;27.39;58.85;94661.94;4987034;28;20204;-79
2022/06/24 10:59:27;;;;;;;3.70;2.67;;;;;;;27.54;59.01;94661.44;4995519;28;20235;-79
2022/06/24 11:02:00;;;;;;;6.40;2.97;;;;;;;27.54;58.91;94662.22;4991682;28;20214;-79
2022/06/24 11:04:36;;;;;;;4.75;2.58;;;;;;;27.61;58.86;94659.03;4994521;28;20249;-78
2022/06/24 11:07:18;;;;;;;5.60;2.70;;;;;;;27.62;58.05;94662.50;4994330;28;20294;-79
2022/06/24 11:09:54;;;;;;;3.85;2.78;;;;;;;27.43;58.53;94655.69;4998172;28;20292;-79
2022/06/24 11:12:33;;;;;;;5.80;3.08;;;;;;;27.43;58.07;94647.69;4998849;28;20222;-79
2022/06/24 11:15:06;;;;;;;5.70;2.60;;;;;;;27.67;58.47;94655.06;4995351;28;20302;-79
2022/06/24 11:17:47;;;;;;;5.38;2.80;;;;;;;27.78;58.63;94655.47;4999137;28;20223;-79
2022/06/24 11:20:19;;;;;;;4.93;2.53;;;;;;;27.73;59.65;94650.31;4993971;28;20215;-79
2022/06/24 11:22:53;;;;;;;3.22;2.47;;;;;;;27.85;58.85;94651.16;4989579;28;20232;-79
2022/06/24 11:25:25;;;;;;;5.95;2.90;;;;;;;27.98;57.54;94644.75;5003242;28;20218;-80
2022/06/24 11:27:57;;;;;;;5.65;2.90;;;;;;;27.93;56.24;94652.19;4992751;28;20583;-79
2022/06/24 11:30:29;;;;;;;6.20;2.80;;;;;;;27.70;55.02;94648.28;4999498;28;20659;-79
2022/06/24 11:33:03;;;;;;;6.05;2.58;;;;;;;27.58;57.07;94647.13;4996455;28;20207;-80
2022/06/24 11:35:37;;;;;;;2.90;2.20;;;;;;;27.72;56.08;94641.50;4996662;28;21249;-80
2022/06/24 11:38:12;;;;;;;6.60;2.53;;;;;;;28.06;52.71;94640.47;4996946;28;20204;-80
2022/06/24 11:40:46;;;;;;;6.13;2.65;;;;;;;28.11;53.44;94634.91;4997598;28;20226;-79
2022/06/24 11:43:19;;;;;;;4.85;2.75;;;;;;;28.30;54.40;94640.56;4999987;28;20245;-78
2022/06/24 11:45:50;;;;;;;5.70;3.22;;;;;;;28.47;55.60;94637.72;4995512;28;20204;-79
2022/06/24 11:48:24;;;;;;;4.72;2.90;;;;;;;28.71;55.08;94642.38;4988474;28;20695;-79
2022/06/24 11:50:57;;;;;;;5.93;2.83;;;;;;;29.09;54.81;94642.84;4992474;28;20204;-78
2022/06/24 11:53:32;;;;;;;4.03;3.00;;;;;;;29.30;54.67;94637.41;4994752;28;20215;-77
2022/06/24 11:56:04;;;;;;;6.55;2.60;;;;;;;29.55;52.46;94643.53;4997369;28;20227;-79
2022/06/24 11:58:41;;;;;;;3.70;2.83;;;;;;;29.69;54.28;94639.38;4997291;28;20239;-78
2022/06/24 12:01:16;;;;;;;7.22;2.97;;;;;;;29.85;54.41;94636.78;4995462;28;20209;-78
2022/06/24 12:03:50;;;;;;;3.97;2.95;;;;;;;29.96;50.87;94643.22;4996235;28;20290;-79
2022/06/24 12:06:24;;;;;;;3.95;2.83;;;;;;;29.93;52.75;94635.88;4991227;28;20235;-78
2022/06/24 12:09:00;;;;;;;4.28;2.95;;;;;;;29.58;52.18;94640.19;4996065;28;20585;-78
2022/06/24 12:11:33;;;;;;;3.28;2.55;;;;;;;29.41;50.86;94645.78;4989937;28;20212;-83
2022/06/24 12:14:08;;;;;;;5.30;3.13;;;;;;;29.27;52.61;94646.91;4996330;28;20215;-79